Pearl City, Hawaii
Current Conditions -  °F | °C
As of 5:53 AM on Thursday 30 Oct 2014 (Local Time) from PHNL Reporting Station
Broken Clouds Broken Clouds  
Wind Chill: 78°   Ceiling: 4700
Heat Index: 80°   Visibility: 10mi
Dew Point: 69°   Wind: 8mph
Humidity: 74%   Direction: 40°NE
Pressure: 30.03"   Gusts: NA
Location:  21.39°N, 157.96°W
Report Text: PHNL 301553Z 04007KT 10SM FEW026 BKN047 BKN060 26/21 A3003 RMK AO2 SLP169 T02560206
Loading
Personal Weather Stations






























Interactive Weather Map
Tropical Storm Tracking
New forecast layout! Learn more

10-Day Weather Forecast

Advertisements
Track Severe Weather on mobile